Time;durP1;ratioP1;P1;durP2;ratioP2;P2;SDS_P1;SDS_P2;PMS_P1;PMS_P2;Temp;Humidity;BMP_temperature;BMP_pressure;BME280_temperature;BME280_humidity;BME280_pressure;Samples;Min_cycle;Max_cycle;Signal;HPM_P1;HPM_P2
2024/04/19 00:01:12;;;;;;;;;;;;;;;7.94;76.11;98308.81;5460956;26;19992;-89
2024/04/19 00:03:37;;;;;;;;;;;;;;;7.86;76.98;98302.72;5461266;26;19938;-87
2024/04/19 00:06:02;;;;;;;;;;;;;;;7.80;79.62;98309.91;5459932;26;19960;-88
2024/04/19 00:08:27;;;;;;;;;;;;;;;7.76;81.83;98314.72;5460673;26;19955;-87
2024/04/19 00:10:55;;;;;;;;;;;;;;;7.75;82.71;98315.94;5460918;26;19935;-87
2024/04/19 00:13:20;;;;;;;;;;;;;;;7.72;83.99;98314.78;5461412;26;19939;-89
2024/04/19 00:15:45;;;;;;;;;;;;;;;7.60;84.74;98312.72;5460821;26;19999;-88
2024/04/19 00:18:11;;;;;;;;;;;;;;;7.63;85.91;98319.34;5461079;26;19932;-88
2024/04/19 00:20:36;;;;;;;;;;;;;;;7.68;85.47;98324.31;5460552;26;19936;-88
2024/04/19 00:23:01;;;;;;;;;;;;;;;7.73;84.33;98326.56;5461134;26;20321;-88
2024/04/19 00:25:27;;;;;;;;;;;;;;;7.74;82.86;98325.38;5460313;26;19935;-88
2024/04/19 00:27:53;;;;;;;;;;;;;;;7.73;83.97;98332.06;5461173;26;19934;-89
2024/04/19 00:30:18;;;;;;;;;;;;;;;7.80;83.63;98323.66;5460602;26;20263;-89
2024/04/19 00:32:43;;;;;;;;;;;;;;;7.78;83.82;98326.06;5460207;26;19996;-88
2024/04/19 00:35:08;;;;;;;;;;;;;;;7.71;85.31;98329.78;5453237;26;20372;-88
2024/04/19 00:37:34;;;;;;;;;;;;;;;7.72;85.83;98325.03;5443983;26;19936;-89
2024/04/19 00:39:59;;;;;;;;;;;;;;;7.70;86.47;98330.19;5459998;26;20359;-88
2024/04/19 00:42:24;;;;;;;;;;;;;;;7.57;86.21;98329.28;5460312;26;19932;-89
2024/04/19 00:44:50;;;;;;;;;;;;;;;7.41;87.04;98334.75;5460549;26;20348;-89
2024/04/19 00:47:15;;;;;;;;;;;;;;;7.18;88.03;98338.31;5460577;26;19939;-88
2024/04/19 00:49:41;;;;;;;;;;;;;;;7.01;89.75;98348.44;5460361;26;19928;-88
2024/04/19 00:52:07;;;;;;;;;;;;;;;6.86;91.68;98339.72;5460603;26;19936;-89
2024/04/19 00:54:33;;;;;;;;;;;;;;;6.73;91.21;98344.28;5460426;26;19928;-89
2024/04/19 00:56:58;;;;;;;;;;;;;;;6.73;92.67;98336.03;5460624;26;19935;-89
2024/04/19 00:59:24;;;;;;;;;;;;;;;6.69;92.71;98337.28;5460698;26;19960;-90
2024/04/19 01:01:49;;;;;;;;;;;;;;;6.72;92.54;98341.94;5460414;26;19936;-89
2024/04/19 01:04:15;;;;;;;;;;;;;;;6.70;92.67;98338.81;5460355;26;19959;-88
2024/04/19 01:06:41;;;;;;;;;;;;;;;6.72;92.61;98339.19;5460543;26;19995;-89
2024/04/19 01:09:06;;;;;;;;;;;;;;;6.85;91.79;98338.16;5460153;26;19996;-89
2024/04/19 01:11:31;;;;;;;;;;;;;;;6.91;90.38;98331.00;5461115;26;19934;-89
2024/04/19 01:13:57;;;;;;;;;;;;;;;6.92;90.30;98334.53;5459992;26;19992;-90
2024/04/19 01:16:22;;;;;;;;;;;;;;;6.99;90.71;98334.38;5460491;26;19932;-89
2024/04/19 01:18:49;;;;;;;;;;;;;;;6.97;91.00;98336.78;5455183;26;19936;-90
2024/04/19 01:21:16;;;;;;;;;;;;;;;6.90;91.77;98331.41;5442249;26;20260;-89
2024/04/19 01:23:41;;;;;;;;;;;;;;;6.89;92.00;98333.38;5460176;26;20367;-89
2024/04/19 01:26:06;;;;;;;;;;;;;;;6.88;92.57;98339.28;5460316;26;19928;-89
2024/04/19 01:28:32;;;;;;;;;;;;;;;6.84;93.13;98335.84;5459767;26;19935;-89
2024/04/19 01:30:57;;;;;;;;;;;;;;;6.87;93.77;98337.75;5460507;26;19972;-89
2024/04/19 01:33:22;;;;;;;;;;;;;;;6.90;94.23;98339.66;5455250;26;19935;-89
2024/04/19 01:35:48;;;;;;;;;;;;;;;6.91;93.64;98327.47;5440299;26;19939;-89
2024/04/19 01:38:13;;;;;;;;;;;;;;;6.95;93.79;98330.91;5460503;26;19928;-89
2024/04/19 01:40:38;;;;;;;;;;;;;;;6.95;93.83;98328.94;5443490;26;20345;-90
2024/04/19 01:43:03;;;;;;;;;;;;;;;7.00;93.16;98343.38;5452975;26;20440;-89
2024/04/19 01:45:29;;;;;;;;;;;;;;;7.03;92.80;98335.09;5460180;26;19968;-89
2024/04/19 01:47:55;;;;;;;;;;;;;;;7.00;92.98;98344.16;5459182;26;19928;-89
2024/04/19 01:50:20;;;;;;;;;;;;;;;7.01;92.79;98333.94;5491480;26;19928;-88
2024/04/19 01:52:46;;;;;;;;;;;;;;;7.04;92.44;98333.13;5459564;26;19928;-89
2024/04/19 01:55:11;;;;;;;;;;;;;;;7.06;93.04;98330.69;5459886;26;19928;-90
2024/04/19 01:57:37;;;;;;;;;;;;;;;6.97;94.55;98325.78;5478076;26;19932;-89
2024/04/19 02:00:02;;;;;;;;;;;;;;;6.98;94.53;98324.59;5440138;26;19928;-89
2024/04/19 02:02:28;;;;;;;;;;;;;;;6.91;94.37;98332.97;5459982;26;20256;-89
2024/04/19 02:04:53;;;;;;;;;;;;;;;6.89;94.11;98330.63;5459221;26;19939;-89
2024/04/19 02:07:19;;;;;;;;;;;;;;;6.88;91.81;98320.84;5459347;26;19928;-90
2024/04/19 02:09:44;;;;;;;;;;;;;;;6.87;91.39;98332.25;5442935;26;19929;-89
2024/04/19 02:12:09;;;;;;;;;;;;;;;6.86;90.79;98331.47;5451238;26;19936;-89
2024/04/19 02:14:35;;;;;;;;;;;;;;;6.89;90.92;98341.63;5459213;26;19935;-89
2024/04/19 02:17:00;;;;;;;;;;;;;;;6.90;90.41;98334.94;5459277;26;19928;-89
2024/04/19 02:19:26;;;;;;;;;;;;;;;6.93;89.60;98336.06;5459312;26;19928;-89
2024/04/19 02:21:51;;;;;;;;;;;;;;;6.91;88.98;98343.94;5434964;26;19936;-88
2024/04/19 02:24:17;;;;;;;;;;;;;;;6.95;88.30;98347.38;5459096;26;19927;-89
2024/04/19 02:26:42;;;;;;;;;;;;;;;6.82;88.70;98349.19;5490717;26;19939;-89
2024/04/19 02:31:51;;;;;;;;;;;;;;;6.87;88.41;98354.97;5491080;26;19997;-90
2024/04/19 02:34:16;;;;;;;;;;;;;;;6.88;86.63;98355.75;5459267;26;19964;-89
2024/04/19 02:36:42;;;;;;;;;;;;;;;6.84;85.93;98355.06;5483376;26;19932;-88
2024/04/19 02:39:07;;;;;;;;;;;;;;;6.95;86.39;98358.38;5458839;26;19928;-88
2024/04/19 02:41:33;;;;;;;;;;;;;;;7.05;83.39;98360.16;5458855;26;19940;-89
2024/04/19 02:43:58;;;;;;;;;;;;;;;7.13;85.17;98363.53;5439457;26;19929;-89
2024/04/19 02:46:23;;;;;;;;;;;;;;;7.08;82.72;98373.03;5454557;26;19927;-89
2024/04/19 02:48:49;;;;;;;;;;;;;;;7.15;83.15;98367.44;5462517;26;20252;-90
2024/04/19 02:51:18;;;;;;;;;;;;;;;7.25;79.59;98362.91;5455616;26;20420;-89
2024/04/19 02:53:43;;;;;;;;;;;;;;;7.35;80.55;98357.19;5456027;26;19928;-88
2024/04/19 02:56:08;;;;;;;;;;;;;;;7.34;80.13;98361.16;5458188;26;19935;-89
2024/04/19 02:58:34;;;;;;;;;;;;;;;7.43;80.66;98357.84;5442420;26;19932;-89
2024/04/19 03:00:59;;;;;;;;;;;;;;;7.45;80.75;98357.41;5458346;26;19934;-88
2024/04/19 03:03:24;;;;;;;;;;;;;;;7.44;81.00;98361.38;5462189;26;20359;-89
2024/04/19 03:05:53;;;;;;;;;;;;;;;7.45;81.31;98366.44;5453537;26;19928;-88
2024/04/19 03:08:19;;;;;;;;;;;;;;;7.33;82.18;98370.59;5447108;26;19928;-88
2024/04/19 03:10:44;;;;;;;;;;;;;;;7.39;82.54;98364.63;5461911;26;19996;-88
2024/04/19 03:13:10;;;;;;;;;;;;;;;7.39;81.62;98373.63;5493564;26;19935;-88
2024/04/19 03:15:37;;;;;;;;;;;;;;;7.47;81.23;98360.53;5461692;26;19928;-89
2024/04/19 03:18:03;;;;;;;;;;;;;;;7.42;81.08;98355.50;5461808;26;19940;-89
2024/04/19 03:20:28;;;;;;;;;;;;;;;7.38;80.36;98366.59;5462094;26;20408;-89
2024/04/19 03:22:53;;;;;;;;;;;;;;;7.45;80.35;98358.19;5462408;26;19932;-88
2024/04/19 03:25:25;;;;;;;;;;;;;;;7.55;80.83;98368.19;5461535;26;19936;-89
2024/04/19 03:28:01;;;;;;;;;;;;;;;7.51;79.52;98370.25;5461590;26;19954;-89
2024/04/19 03:30:29;;;;;;;;;;;;;;;7.53;80.34;98378.06;5461727;26;19928;-89
2024/04/19 03:32:54;;;;;;;;;;;;;;;7.60;81.24;98383.41;5461705;26;20344;-88
2024/04/19 03:35:19;;;;;;;;;;;;;;;7.63;79.53;98385.31;5461787;26;19935;-88
2024/04/19 03:37:45;;;;;;;;;;;;;;;7.68;77.79;98385.59;5461614;26;19935;-89
2024/04/19 03:40:10;;;;;;;;;;;;;;;7.81;76.13;98382.97;5461632;26;20333;-89
2024/04/19 03:42:45;;;;;;;;;;;;;;;7.94;73.82;98383.88;5461569;26;19928;-89
2024/04/19 03:48:04;;;;;;;;;;;;;;;8.11;74.64;98385.44;5493514;26;19935;-89
2024/04/19 03:50:29;;;;;;;;;;;;;;;8.09;73.88;98390.59;5461126;26;19928;-88
2024/04/19 03:52:54;;;;;;;;;;;;;;;8.02;75.09;98377.00;5460319;26;19938;-88
2024/04/19 03:55:20;;;;;;;;;;;;;;;8.14;75.46;98379.09;5461682;26;19928;-87
2024/04/19 03:57:45;;;;;;;;;;;;;;;8.29;73.79;98387.03;5461222;26;19934;-87
2024/04/19 04:00:10;;;;;;;;;;;;;;;8.50;71.80;98383.78;5460982;26;19935;-88
2024/04/19 04:02:36;;;;;;;;;;;;;;;8.58;71.79;98385.16;5461228;26;19928;-87
2024/04/19 04:05:01;;;;;;;;;;;;;;;8.65;70.83;98396.00;5473543;26;20368;-87
2024/04/19 04:07:27;;;;;;;;;;;;;;;8.60;70.92;98398.50;5461301;26;19934;-88
2024/04/19 04:09:53;;;;;;;;;;;;;;;8.58;71.33;98407.97;5461291;26;19998;-87
2024/04/19 04:12:18;;;;;;;;;;;;;;;8.61;69.92;98400.84;5492061;26;19936;-87
2024/04/19 04:14:43;;;;;;;;;;;;;;;8.49;70.38;98405.06;5461365;26;19996;-88
2024/04/19 04:17:10;;;;;;;;;;;;;;;8.56;71.62;98420.59;5460933;26;19928;-88
2024/04/19 04:19:35;;;;;;;;;;;;;;;8.63;72.38;98431.47;5461030;26;19956;-89
2024/04/19 04:22:01;;;;;;;;;;;;;;;8.66;72.33;98418.81;5493171;26;19940;-89
2024/04/19 04:24:27;;;;;;;;;;;;;;;8.75;71.71;98422.50;5460953;26;19928;-88
2024/04/19 04:26:52;;;;;;;;;;;;;;;8.67;71.30;98418.41;5460816;26;19936;-88
2024/04/19 04:29:18;;;;;;;;;;;;;;;8.71;71.00;98423.81;5460926;26;19997;-89
2024/04/19 04:31:43;;;;;;;;;;;;;;;8.85;70.67;98420.72;5460869;26;19940;-88
2024/04/19 04:34:08;;;;;;;;;;;;;;;8.94;69.36;98418.13;5460817;26;19939;-87
2024/04/19 04:36:34;;;;;;;;;;;;;;;9.09;66.92;98418.53;5436372;26;20004;-88
2024/04/19 04:38:59;;;;;;;;;;;;;;;9.25;66.98;98426.75;5460437;26;19928;-88
2024/04/19 04:41:24;;;;;;;;;;;;;;;9.29;66.21;98421.91;5460739;26;19946;-89
2024/04/19 04:43:49;;;;;;;;;;;;;;;9.22;66.54;98424.88;5460906;26;19932;-87
2024/04/19 04:46:15;;;;;;;;;;;;;;;9.48;64.39;98423.78;5460563;26;19936;-89
2024/04/19 04:48:40;;;;;;;;;;;;;;;9.46;64.80;98440.00;5460324;26;20351;-88
2024/04/19 04:51:05;;;;;;;;;;;;;;;9.58;65.47;98433.75;5459832;26;19934;-88
2024/04/19 04:53:31;;;;;;;;;;;;;;;9.54;66.06;98426.75;5444394;26;19936;-87
2024/04/19 04:55:56;;;;;;;;;;;;;;;9.79;64.32;98432.38;5452531;26;19928;-87
2024/04/19 04:58:21;;;;;;;;;;;;;;;9.82;63.82;98437.78;5459637;26;20744;-87
2024/04/19 05:00:51;;;;;;;;;;;;;;;9.86;63.65;98439.66;5459873;26;20309;-86
2024/04/19 05:03:16;;;;;;;;;;;;;;;9.80;63.61;98440.22;5444037;26;19935;-89
2024/04/19 05:05:41;;;;;;;;;;;;;;;9.86;64.02;98443.22;5452938;26;19928;-89
2024/04/19 05:08:07;;;;;;;;;;;;;;;9.94;64.70;98441.81;5459899;26;19935;-88
2024/04/19 05:10:32;;;;;;;;;;;;;;;10.02;64.12;98453.38;5460131;26;19944;-83
2024/04/19 05:12:57;;;;;;;;;;;;;;;10.31;64.15;98447.84;5459924;26;19935;-85
2024/04/19 05:15:23;;;;;;;;;;;;;;;10.39;62.57;98454.69;5456705;26;20429;-86
2024/04/19 05:17:48;;;;;;;;;;;;;;;10.53;63.97;98465.31;5438944;26;19932;-88
2024/04/19 05:20:14;;;;;;;;;;;;;;;10.55;63.76;98460.88;5458871;26;19947;-87
2024/04/19 05:23:01;;;;;;;;;;;;;;;10.70;62.58;98465.97;5461373;26;19937;-85
2024/04/19 05:25:26;;;;;;;;;;;;;;;10.93;62.12;98458.09;5459518;26;19932;-85
2024/04/19 05:27:52;;;;;;;;;;;;;;;11.33;60.76;98452.03;5439201;26;19939;-82
2024/04/19 05:30:17;;;;;;;;;;;;;;;11.26;58.34;98461.34;5454771;26;19939;-89
2024/04/19 05:32:43;;;;;;;;;;;;;;;11.54;57.26;98461.59;5479339;26;19929;-86
2024/04/19 05:35:12;;;;;;;;;;;;;;;11.66;56.54;98458.75;5457159;26;19932;-86
2024/04/19 05:37:48;;;;;;;;;;;;;;;11.79;57.37;98461.50;5460009;26;19938;-86
2024/04/19 05:40:15;;;;;;;;;;;;;;;12.05;55.77;98457.38;5436340;26;19928;-84
2024/04/19 05:42:40;;;;;;;;;;;;;;;12.80;53.86;98460.03;5440255;26;19940;-86
2024/04/19 05:45:06;;;;;;;;;;;;;;;13.30;51.88;98467.91;5459778;26;19934;-85
2024/04/19 05:47:32;;;;;;;;;;;;;;;13.06;50.96;98469.66;5440556;26;20298;-83
2024/04/19 05:49:57;;;;;;;;;;;;;;;13.04;51.67;98469.34;5431741;26;19996;-86
2024/04/19 05:52:23;;;;;;;;;;;;;;;12.94;53.00;98474.09;5443799;26;20037;-83
2024/04/19 05:54:48;;;;;;;;;;;;;;;13.02;52.53;98475.34;5458841;26;19928;-84
2024/04/19 05:57:15;;;;;;;;;;;;;;;12.85;50.98;98474.06;5459145;26;19928;-84
2024/04/19 05:59:40;;;;;;;;;;;;;;;13.07;50.57;98471.22;5458353;26;19996;-84
2024/04/19 06:02:05;;;;;;;;;;;;;;;13.13;51.09;98465.88;5458277;26;19939;-84
2024/04/19 06:04:30;;;;;;;;;;;;;;;13.34;51.48;98464.97;5457388;26;19938;-84
2024/04/19 06:06:56;;;;;;;;;;;;;;;13.55;49.80;98469.63;5457050;26;19960;-84
2024/04/19 06:09:21;;;;;;;;;;;;;;;13.60;50.73;98460.66;5458363;26;19969;-83
2024/04/19 06:11:47;;;;;;;;;;;;;;;14.50;47.63;98469.34;5434472;26;20741;-82
2024/04/19 06:14:12;;;;;;;;;;;;;;;14.72;46.93;98463.53;5458186;26;20493;-83
2024/04/19 06:16:37;;;;;;;;;;;;;;;15.02;46.57;98468.81;5456469;26;19939;-82
2024/04/19 06:19:03;;;;;;;;;;;;;;;14.98;46.27;98471.00;5456482;26;19935;-83
2024/04/19 06:21:28;;;;;;;;;;;;;;;15.15;46.31;98460.22;5460172;26;20484;-82
2024/04/19 06:23:53;;;;;;;;;;;;;;;14.93;45.90;98462.53;5461116;26;19927;-82
2024/04/19 06:26:19;;;;;;;;;;;;;;;14.92;45.17;98466.53;5461293;26;20428;-82
2024/04/19 06:28:44;;;;;;;;;;;;;;;14.31;48.15;98468.59;5461596;26;19928;-82
2024/04/19 06:31:10;;;;;;;;;;;;;;;14.51;48.19;98468.88;5462017;26;20244;-83
2024/04/19 06:33:35;;;;;;;;;;;;;;;15.01;45.30;98472.81;5461820;26;20360;-82
2024/04/19 06:36:01;;;;;;;;;;;;;;;15.94;44.24;98468.16;5462603;26;20244;-81
2024/04/19 06:38:26;;;;;;;;;;;;;;;16.32;43.43;98462.53;5454171;26;19954;-83
2024/04/19 06:40:51;;;;;;;;;;;;;;;15.71;44.42;98464.19;5446364;26;19928;-82
2024/04/19 06:43:17;;;;;;;;;;;;;;;15.85;43.70;98464.22;5461565;26;19928;-82
2024/04/19 06:45:42;;;;;;;;;;;;;;;15.48;44.15;98468.53;5462432;26;19936;-83
2024/04/19 06:48:07;;;;;;;;;;;;;;;15.61;44.37;98471.84;5460766;26;19939;-83
2024/04/19 06:50:33;;;;;;;;;;;;;;;15.49;43.85;98459.69;5462147;26;19928;-81
2024/04/19 06:52:58;;;;;;;;;;;;;;;14.68;46.34;98460.16;5468015;26;19954;-82
2024/04/19 06:55:23;;;;;;;;;;;;;;;14.92;45.38;98463.75;5475647;26;19928;-82
2024/04/19 06:57:49;;;;;;;;;;;;;;;14.77;47.21;98460.16;5461155;26;19939;-82
2024/04/19 07:00:14;;;;;;;;;;;;;;;15.17;45.78;98462.56;5461616;26;20289;-82
2024/04/19 07:02:39;;;;;;;;;;;;;;;14.90;45.61;98455.88;5455528;26;20345;-82
2024/04/19 07:05:05;;;;;;;;;;;;;;;15.50;44.93;98457.66;5444597;26;19927;-82
2024/04/19 07:07:30;;;;;;;;;;;;;;;16.31;43.18;98438.69;5461458;26;20317;-81
2024/04/19 07:09:55;;;;;;;;;;;;;;;17.92;40.32;98442.97;5460587;26;19935;-82
2024/04/19 07:12:20;;;;;;;;;;;;;;;19.84;36.79;98439.69;5460506;26;20328;-81
2024/04/19 07:14:46;;;;;;;;;;;;;;;21.66;32.78;98437.25;5460672;26;20024;-81
2024/04/19 07:17:11;;;;;;;;;;;;;;;22.12;32.41;98433.69;5460466;26;19940;-82
2024/04/19 07:19:36;;;;;;;;;;;;;;;23.59;29.60;98431.84;5460678;26;20719;-81
2024/04/19 07:22:02;;;;;;;;;;;;;;;23.46;28.66;98435.28;5460037;26;19932;-82
2024/04/19 07:24:27;;;;;;;;;;;;;;;24.79;27.36;98440.34;5460776;26;19932;-81
2024/04/19 07:26:52;;;;;;;;;;;;;;;25.63;25.50;98431.06;5461051;26;20339;-81
2024/04/19 07:29:18;;;;;;;;;;;;;;;25.78;26.61;98437.69;5444957;26;19932;-82
2024/04/19 07:31:43;;;;;;;;;;;;;;;26.09;25.08;98438.06;5453562;26;19939;-82
2024/04/19 07:34:08;;;;;;;;;;;;;;;26.24;24.83;98432.56;5460734;26;19935;-81
2024/04/19 07:36:33;;;;;;;;;;;;;;;26.83;24.22;98430.84;5456805;26;19928;-81
2024/04/19 07:38:59;;;;;;;;;;;;;;;26.89;24.90;98433.56;5441664;26;20036;-81
2024/04/19 07:41:25;;;;;;;;;;;;;;;28.51;21.64;98424.72;5461004;26;20263;-82
2024/04/19 07:43:51;;;;;;;;;;;;;;;29.41;19.81;98431.75;5460852;26;19954;-81
2024/04/19 07:46:16;;;;;;;;;;;;;;;27.86;22.99;98424.16;5460733;26;19932;-83
2024/04/19 07:48:42;;;;;;;;;;;;;;;28.43;21.79;98428.88;5461174;26;19928;-82
2024/04/19 07:51:07;;;;;;;;;;;;;;;28.70;21.60;98421.50;5461100;26;19928;-83
2024/04/19 07:53:32;;;;;;;;;;;;;;;27.16;20.94;98428.47;5461159;26;19928;-81
2024/04/19 07:55:58;;;;;;;;;;;;;;;25.96;21.44;98419.03;5460965;26;19976;-83
2024/04/19 07:58:25;;;;;;;;;;;;;;;24.81;23.75;98429.25;5460674;26;19928;-82
2024/04/19 08:00:53;;;;;;;;;;;;;;;23.05;24.61;98421.41;5461024;26;19928;-82
2024/04/19 08:03:19;;;;;;;;;;;;;;;21.16;27.15;98417.78;5460231;26;19956;-81
2024/04/19 08:05:46;;;;;;;;;;;;;;;19.99;29.89;98417.03;5460953;26;19936;-81
2024/04/19 08:08:11;;;;;;;;;;;;;;;19.66;29.68;98417.72;5461141;26;19928;-82
2024/04/19 08:10:36;;;;;;;;;;;;;;;19.17;31.86;98413.44;5455549;26;19937;-82
2024/04/19 08:13:02;;;;;;;;;;;;;;;18.82;31.92;98413.72;5441784;26;19974;-81
2024/04/19 08:15:27;;;;;;;;;;;;;;;18.70;33.25;98410.09;5460221;26;19952;-82
2024/04/19 08:17:52;;;;;;;;;;;;;;;18.42;32.92;98407.06;5460489;26;20000;-82
2024/04/19 08:20:18;;;;;;;;;;;;;;;18.27;34.39;98395.22;5460233;26;19928;-82
2024/04/19 08:22:43;;;;;;;;;;;;;;;17.63;32.58;98398.44;5460437;26;19935;-81
2024/04/19 08:25:08;;;;;;;;;;;;;;;17.36;36.88;98392.00;5460706;26;19938;-81
2024/04/19 08:27:34;;;;;;;;;;;;;;;17.11;32.35;98392.75;5460401;26;19928;-81
2024/04/19 08:29:59;;;;;;;;;;;;;;;17.15;31.52;98393.28;5456866;26;20404;-81
2024/04/19 08:32:24;;;;;;;;;;;;;;;17.49;32.62;98398.00;5424313;26;20359;-81
2024/04/19 08:34:55;;;;;;;;;;;;;;;17.87;33.45;98388.53;5481038;26;19928;-81
2024/04/19 08:37:21;;;;;;;;;;;;;;;18.01;32.44;98388.94;5460885;26;19934;-81
2024/04/19 08:39:46;;;;;;;;;;;;;;;17.97;32.04;98388.34;5460300;26;19936;-82
2024/04/19 08:42:13;;;;;;;;;;;;;;;17.78;34.17;98387.94;5460640;26;19928;-82
2024/04/19 08:44:41;;;;;;;;;;;;;;;18.28;33.75;98380.00;5458271;26;20624;-81
2024/04/19 08:47:07;;;;;;;;;;;;;;;19.08;33.25;98383.59;5489796;26;19927;-81
2024/04/19 08:49:35;;;;;;;;;;;;;;;19.27;34.53;98379.09;5459901;26;19940;-81
2024/04/19 08:52:00;;;;;;;;;;;;;;;19.07;31.74;98368.81;5460361;26;19928;-82
2024/04/19 08:54:26;;;;;;;;;;;;;;;19.01;33.93;98370.84;5459633;26;19954;-82
2024/04/19 08:56:52;;;;;;;;;;;;;;;19.31;32.01;98368.41;5459300;26;20259;-82
2024/04/19 08:59:18;;;;;;;;;;;;;;;19.13;31.88;98363.25;5453457;26;19932;-82
2024/04/19 09:01:43;;;;;;;;;;;;;;;19.02;33.09;98358.38;5441655;26;19935;-82
2024/04/19 09:04:08;;;;;;;;;;;;;;;18.43;32.93;98363.09;5459157;26;19935;-82
2024/04/19 09:06:34;;;;;;;;;;;;;;;17.71;34.09;98352.81;5460031;26;19935;-81
2024/04/19 09:08:59;;;;;;;;;;;;;;;17.66;36.54;98350.72;5459773;26;19928;-83
2024/04/19 09:11:24;;;;;;;;;;;;;;;17.51;34.15;98347.25;5459677;26;19927;-81
2024/04/19 09:13:50;;;;;;;;;;;;;;;17.59;38.26;98359.53;5459152;26;19928;-83
2024/04/19 09:16:15;;;;;;;;;;;;;;;17.76;35.85;98354.13;5443635;26;19997;-81
2024/04/19 09:18:40;;;;;;;;;;;;;;;17.98;36.97;98348.75;5451967;26;19928;-81
2024/04/19 09:21:07;;;;;;;;;;;;;;;18.05;37.69;98351.09;5459205;26;20347;-80
2024/04/19 09:23:32;;;;;;;;;;;;;;;18.38;38.22;98358.97;5459225;26;19996;-80
2024/04/19 09:25:59;;;;;;;;;;;;;;;18.67;37.00;98355.13;5459358;26;19936;-81
2024/04/19 09:28:26;;;;;;;;;;;;;;;18.76;36.72;98349.31;5459431;26;20424;-81
2024/04/19 09:30:54;;;;;;;;;;;;;;;19.01;36.54;98344.88;5459408;26;19928;-80
2024/04/19 09:33:21;;;;;;;;;;;;;;;19.11;35.34;98341.34;5453763;26;20348;-80
2024/04/19 09:35:48;;;;;;;;;;;;;;;19.22;33.57;98337.06;5440469;26;20018;-81
2024/04/19 09:38:15;;;;;;;;;;;;;;;19.57;36.24;98342.28;5459091;26;19928;-82
2024/04/19 09:40:44;;;;;;;;;;;;;;;19.87;31.13;98329.34;5459800;26;19935;-80
2024/04/19 09:43:13;;;;;;;;;;;;;;;20.52;31.10;98329.06;5491120;26;20295;-80
2024/04/19 09:45:47;;;;;;;;;;;;;;;20.54;30.97;98326.53;5458863;26;20350;-81
2024/04/19 09:48:16;;;;;;;;;;;;;;;20.42;27.52;98327.81;5459129;26;19947;-80
2024/04/19 09:50:51;;;;;;;;;;;;;;;19.87;29.44;98323.72;5458850;26;20405;-81
2024/04/19 09:53:19;;;;;;;;;;;;;;;19.99;28.15;98324.50;5459061;26;19934;-82
2024/04/19 09:56:06;;;;;;;;;;;;;;;20.01;29.94;98322.72;5457968;26;19931;-81
2024/04/19 09:58:31;;;;;;;;;;;;;;;19.75;28.31;98313.78;5439970;26;19928;-82
2024/04/19 10:00:58;;;;;;;;;;;;;;;19.29;29.96;98320.50;5454405;26;19935;-80
2024/04/19 10:03:24;;;;;;;;;;;;;;;19.21;30.06;98319.50;5458862;26;19932;-82
2024/04/19 10:05:50;;;;;;;;;;;;;;;19.35;29.99;98318.50;5458348;26;19935;-82
2024/04/19 10:08:15;;;;;;;;;;;;;;;19.62;31.69;98307.91;5458605;26;19928;-83
2024/04/19 10:10:41;;;;;;;;;;;;;;;20.21;30.12;98308.41;5458895;26;20790;-82
2024/04/19 10:13:06;;;;;;;;;;;;;;;20.81;29.03;98296.81;5441660;26;19936;-79
2024/04/19 10:15:32;;;;;;;;;;;;;;;21.19;31.08;98298.75;5452110;26;20344;-79
2024/04/19 10:18:03;;;;;;;;;;;;;;;21.41;28.53;98303.47;5428196;26;23304;-81
2024/04/19 10:20:28;;;;;;;;;;;;;;;21.68;30.79;98296.16;5458533;26;19938;-79
2024/04/19 10:22:53;;;;;;;;;;;;;;;22.00;28.13;98291.59;5458442;26;19940;-82
2024/04/19 10:25:25;;;;;;;;;;;;;;;21.64;30.33;98287.97;5458252;26;19928;-82
2024/04/19 10:27:50;;;;;;;;;;;;;;;21.65;32.55;98289.50;5437948;26;19928;-81
2024/04/19 10:30:16;;;;;;;;;;;;;;;21.79;29.74;98288.41;5453603;26;19928;-81
2024/04/19 10:32:42;;;;;;;;;;;;;;;21.35;28.62;98288.69;5455179;26;19939;-82
2024/04/19 10:35:11;;;;;;;;;;;;;;;21.19;28.88;98281.88;5454042;26;19932;-81
2024/04/19 10:37:37;;;;;;;;;;;;;;;21.29;29.71;98279.53;5442822;26;20251;-83
2024/04/19 10:40:04;;;;;;;;;;;;;;;21.16;29.84;98280.09;5456394;26;19928;-82
2024/04/19 10:42:30;;;;;;;;;;;;;;;20.62;30.08;98276.97;5459180;26;20416;-85
2024/04/19 10:44:55;;;;;;;;;;;;;;;20.73;31.21;98279.00;5436046;26;19956;-83
2024/04/19 10:47:22;;;;;;;;;;;;;;;20.53;27.87;98277.28;5438576;26;19964;-83
2024/04/19 10:49:48;;;;;;;;;;;;;;;20.59;28.10;98278.03;5423509;26;20001;-82
2024/04/19 10:52:18;;;;;;;;;;;;;;;20.83;27.88;98278.19;5442635;26;19940;-82
2024/04/19 10:54:44;;;;;;;;;;;;;;;21.00;30.43;98273.25;5458022;26;19932;-83
2024/04/19 10:57:09;;;;;;;;;;;;;;;20.80;29.15;98273.59;5437834;26;20310;-83
2024/04/19 10:59:34;;;;;;;;;;;;;;;21.21;27.67;98267.31;5430888;26;19935;-83
2024/04/19 11:02:01;;;;;;;;;;;;;;;21.39;27.88;98263.91;5490480;26;20249;-83
2024/04/19 11:04:27;;;;;;;;;;;;;;;21.34;29.59;98264.69;5457773;26;20352;-84
2024/04/19 11:06:52;;;;;;;;;;;;;;;21.77;27.66;98260.03;5458064;26;19934;-81
2024/04/19 11:09:18;;;;;;;;;;;;;;;21.87;26.73;98260.47;5461091;26;19935;-84
2024/04/19 11:11:43;;;;;;;;;;;;;;;21.64;27.69;98250.69;5442222;26;19969;-81
2024/04/19 11:14:09;;;;;;;;;;;;;;;21.71;27.73;98253.69;5489286;26;20415;-83
2024/04/19 11:16:35;;;;;;;;;;;;;;;21.84;31.42;98253.06;5461506;26;20440;-82
2024/04/19 11:19:00;;;;;;;;;;;;;;;22.21;29.04;98249.69;5460942;26;19928;-82
2024/04/19 11:21:25;;;;;;;;;;;;;;;22.40;29.12;98253.34;5460672;26;20003;-81
2024/04/19 11:23:51;;;;;;;;;;;;;;;22.48;28.69;98245.06;5461184;26;20004;-80
2024/04/19 11:26:19;;;;;;;;;;;;;;;22.77;29.91;98244.25;5493407;26;19928;-80
2024/04/19 11:28:47;;;;;;;;;;;;;;;23.13;28.09;98253.25;5460081;26;20001;-80
2024/04/19 11:31:14;;;;;;;;;;;;;;;23.01;26.38;98247.00;5460453;26;19927;-79
2024/04/19 11:33:39;;;;;;;;;;;;;;;23.00;28.04;98248.31;5459128;26;20253;-80
2024/04/19 11:36:08;;;;;;;;;;;;;;;22.51;28.64;98238.38;5459196;26;20348;-80
2024/04/19 11:38:35;;;;;;;;;;;;;;;22.03;31.39;98228.63;5449414;26;20326;-80
2024/04/19 11:41:00;;;;;;;;;;;;;;;20.66;35.48;98229.78;5446684;26;19936;-79
2024/04/19 11:43:25;;;;;;;;;;;;;;;20.10;39.41;98224.28;5460343;26;19996;-81
2024/04/19 11:45:51;;;;;;;;;;;;;;;19.80;39.39;98226.09;5460292;26;20371;-81
2024/04/19 11:48:24;;;;;;;;;;;;;;;20.23;36.79;98224.50;5459572;26;20256;-81
2024/04/19 11:50:49;;;;;;;;;;;;;;;20.38;37.42;98215.81;5459076;26;19928;-81
2024/04/19 11:53:15;;;;;;;;;;;;;;;20.30;34.03;98228.84;5459527;26;20344;-81
2024/04/19 11:55:40;;;;;;;;;;;;;;;20.79;34.39;98224.34;5459532;26;20514;-80
2024/04/19 11:58:05;;;;;;;;;;;;;;;20.83;34.54;98212.84;5459940;26;19935;-80
2024/04/19 12:00:30;;;;;;;;;;;;;;;20.75;35.49;98207.00;5437022;26;19936;-81
2024/04/19 12:02:56;;;;;;;;;;;;;;;20.99;33.24;98215.56;5458205;26;19956;-81
2024/04/19 12:05:21;;;;;;;;;;;;;;;20.85;32.98;98201.88;5460048;26;19997;-81
2024/04/19 12:07:47;;;;;;;;;;;;;;;20.51;31.98;98204.03;5460094;26;19935;-80
2024/04/19 12:10:12;;;;;;;;;;;;;;;20.19;30.82;98198.00;5460484;26;19934;-82
2024/04/19 12:12:37;;;;;;;;;;;;;;;19.85;33.63;98192.44;5459884;26;19928;-81
2024/04/19 12:15:03;;;;;;;;;;;;;;;19.90;37.04;98199.31;5460524;26;20347;-82
2024/04/19 12:17:28;;;;;;;;;;;;;;;20.00;34.58;98189.38;5459453;26;19935;-82
2024/04/19 12:19:53;;;;;;;;;;;;;;;19.80;35.22;98184.06;5459827;26;19935;-81
2024/04/19 12:22:19;;;;;;;;;;;;;;;19.86;34.45;98188.38;5459623;26;19928;-81
2024/04/19 12:24:44;;;;;;;;;;;;;;;19.82;35.83;98181.50;5459925;26;19928;-81
2024/04/19 12:27:09;;;;;;;;;;;;;;;19.94;34.14;98180.22;5467773;26;19943;-80
2024/04/19 12:29:35;;;;;;;;;;;;;;;19.83;33.93;98175.38;5459957;26;19939;-80
2024/04/19 12:32:00;;;;;;;;;;;;;;;19.98;32.52;98171.53;5459676;26;19935;-81
2024/04/19 12:34:26;;;;;;;;;;;;;;;19.60;33.68;98164.69;5460110;26;19976;-81
2024/04/19 12:36:51;;;;;;;;;;;;;;;19.30;37.56;98158.81;5459597;26;19935;-81
2024/04/19 12:39:17;;;;;;;;;;;;;;;19.14;35.94;98173.56;5460180;26;19928;-81
2024/04/19 12:41:43;;;;;;;;;;;;;;;18.90;36.74;98160.81;5460943;26;19932;-81
2024/04/19 12:44:08;;;;;;;;;;;;;;;18.60;38.06;98168.13;5459064;26;20261;-82
2024/04/19 12:46:36;;;;;;;;;;;;;;;18.45;37.66;98168.28;5450330;26;19952;-80
2024/04/19 12:49:04;;;;;;;;;;;;;;;18.47;34.75;98157.34;5445837;26;19996;-80